sensor_id;sensor_type;location;lat;lon;timestamp;temperature;humidity
21830;DHT22;11077;50.264;6.798;2022-11-20T00:01:39;2.30;99.90
21830;DHT22;11077;50.264;6.798;2022-11-20T00:04:06;2.30;99.90
21830;DHT22;11077;50.264;6.798;2022-11-20T00:06:36;2.30;99.90
21830;DHT22;11077;50.264;6.798;2022-11-20T00:09:03;2.30;99.90
21830;DHT22;11077;50.264;6.798;2022-11-20T00:11:31;2.30;99.90
21830;DHT22;11077;50.264;6.798;2022-11-20T00:14:00;2.30;99.90
21830;DHT22;11077;50.264;6.798;2022-11-20T00:16:30;2.30;99.90
21830;DHT22;11077;50.264;6.798;2022-11-20T00:18:57;2.40;99.90
21830;DHT22;11077;50.264;6.798;2022-11-20T00:21:26;2.40;99.90
21830;DHT22;11077;50.264;6.798;2022-11-20T00:23:57;2.40;99.90
21830;DHT22;11077;50.264;6.798;2022-11-20T00:26:26;2.40;99.90
21830;DHT22;11077;50.264;6.798;2022-11-20T00:28:55;2.40;99.90
21830;DHT22;11077;50.264;6.798;2022-11-20T00:31:23;2.30;99.90
21830;DHT22;11077;50.264;6.798;2022-11-20T00:33:51;2.40;99.90
21830;DHT22;11077;50.264;6.798;2022-11-20T00:36:20;2.40;99.90
21830;DHT22;11077;50.264;6.798;2022-11-20T00:38:51;2.40;99.90
21830;DHT22;11077;50.264;6.798;2022-11-20T00:41:21;2.40;99.90
21830;DHT22;11077;50.264;6.798;2022-11-20T00:43:48;2.40;99.90
21830;DHT22;11077;50.264;6.798;2022-11-20T00:46:17;2.50;99.90
21830;DHT22;11077;50.264;6.798;2022-11-20T00:48:45;2.50;99.90
21830;DHT22;11077;50.264;6.798;2022-11-20T00:51:14;2.50;99.90
21830;DHT22;11077;50.264;6.798;2022-11-20T00:53:41;2.50;99.90
21830;DHT22;11077;50.264;6.798;2022-11-20T00:56:11;2.50;99.90
21830;DHT22;11077;50.264;6.798;2022-11-20T00:58:41;2.50;99.90
21830;DHT22;11077;50.264;6.798;2022-11-20T01:01:10;2.60;99.90
21830;DHT22;11077;50.264;6.798;2022-11-20T01:03:39;2.60;99.90
21830;DHT22;11077;50.264;6.798;2022-11-20T01:06:09;2.60;99.90
21830;DHT22;11077;50.264;6.798;2022-11-20T01:08:37;2.60;99.90
21830;DHT22;11077;50.264;6.798;2022-11-20T01:11:06;2.70;99.90
21830;DHT22;11077;50.264;6.798;2022-11-20T01:13:33;2.70;99.90
21830;DHT22;11077;50.264;6.798;2022-11-20T01:16:07;2.70;99.90
21830;DHT22;11077;50.264;6.798;2022-11-20T01:18:34;2.70;99.90
21830;DHT22;11077;50.264;6.798;2022-11-20T01:21:03;2.70;99.90
21830;DHT22;11077;50.264;6.798;2022-11-20T01:23:32;2.80;99.90
21830;DHT22;11077;50.264;6.798;2022-11-20T01:26:00;2.80;99.90
21830;DHT22;11077;50.264;6.798;2022-11-20T01:28:28;2.90;99.90
21830;DHT22;11077;50.264;6.798;2022-11-20T01:30:56;2.90;99.90
21830;DHT22;11077;50.264;6.798;2022-11-20T01:33:25;2.90;99.90
21830;DHT22;11077;50.264;6.798;2022-11-20T01:35:53;2.90;99.90
21830;DHT22;11077;50.264;6.798;2022-11-20T01:38:20;2.90;99.90
21830;DHT22;11077;50.264;6.798;2022-11-20T01:40:54;2.90;99.90
21830;DHT22;11077;50.264;6.798;2022-11-20T01:43:23;3.00;99.90
21830;DHT22;11077;50.264;6.798;2022-11-20T01:45:58;3.00;99.90
21830;DHT22;11077;50.264;6.798;2022-11-20T01:48:32;3.00;99.90
21830;DHT22;11077;50.264;6.798;2022-11-20T01:51:00;3.00;99.90
21830;DHT22;11077;50.264;6.798;2022-11-20T01:53:32;3.00;99.90
21830;DHT22;11077;50.264;6.798;2022-11-20T01:56:01;3.10;99.90
21830;DHT22;11077;50.264;6.798;2022-11-20T01:58:33;3.10;99.90
21830;DHT22;11077;50.264;6.798;2022-11-20T02:01:03;3.10;99.90
21830;DHT22;11077;50.264;6.798;2022-11-20T02:03:32;3.10;99.90
21830;DHT22;11077;50.264;6.798;2022-11-20T02:06:05;3.10;99.90
21830;DHT22;11077;50.264;6.798;2022-11-20T02:08:36;3.10;99.90
21830;DHT22;11077;50.264;6.798;2022-11-20T02:11:04;3.10;99.90
21830;DHT22;11077;50.264;6.798;2022-11-20T02:13:32;3.10;99.90
21830;DHT22;11077;50.264;6.798;2022-11-20T02:16:15;3.10;99.90
21830;DHT22;11077;50.264;6.798;2022-11-20T02:18:44;3.20;99.90
21830;DHT22;11077;50.264;6.798;2022-11-20T02:24:07;3.20;99.90
21830;DHT22;11077;50.264;6.798;2022-11-20T02:26:41;3.20;99.90
21830;DHT22;11077;50.264;6.798;2022-11-20T02:29:09;3.20;99.90
21830;DHT22;11077;50.264;6.798;2022-11-20T02:31:39;3.20;99.90
21830;DHT22;11077;50.264;6.798;2022-11-20T02:34:08;3.20;99.90
21830;DHT22;11077;50.264;6.798;2022-11-20T02:36:36;3.30;99.90
21830;DHT22;11077;50.264;6.798;2022-11-20T02:39:08;3.20;99.90
21830;DHT22;11077;50.264;6.798;2022-11-20T02:41:37;3.30;99.90
21830;DHT22;11077;50.264;6.798;2022-11-20T02:44:05;3.30;99.90
21830;DHT22;11077;50.264;6.798;2022-11-20T02:46:33;3.30;99.90
21830;DHT22;11077;50.264;6.798;2022-11-20T02:49:01;3.30;99.90
21830;DHT22;11077;50.264;6.798;2022-11-20T02:51:29;3.30;99.90
21830;DHT22;11077;50.264;6.798;2022-11-20T02:53:57;3.30;99.90
21830;DHT22;11077;50.264;6.798;2022-11-20T02:56:26;3.40;99.90
21830;DHT22;11077;50.264;6.798;2022-11-20T02:58:53;3.40;99.90
21830;DHT22;11077;50.264;6.798;2022-11-20T03:01:21;3.30;99.90
21830;DHT22;11077;50.264;6.798;2022-11-20T03:03:49;3.40;99.90
21830;DHT22;11077;50.264;6.798;2022-11-20T03:06:18;3.30;99.90
21830;DHT22;11077;50.264;6.798;2022-11-20T03:08:45;3.40;99.90
21830;DHT22;11077;50.264;6.798;2022-11-20T03:11:12;3.40;99.90
21830;DHT22;11077;50.264;6.798;2022-11-20T03:13:41;3.40;99.90
21830;DHT22;11077;50.264;6.798;2022-11-20T03:16:10;3.40;99.90
21830;DHT22;11077;50.264;6.798;2022-11-20T03:18:37;3.40;99.90
21830;DHT22;11077;50.264;6.798;2022-11-20T03:21:05;3.40;99.90
21830;DHT22;11077;50.264;6.798;2022-11-20T03:23:33;3.50;99.90
21830;DHT22;11077;50.264;6.798;2022-11-20T03:26:08;3.50;99.90
21830;DHT22;11077;50.264;6.798;2022-11-20T03:28:36;3.50;99.90
21830;DHT22;11077;50.264;6.798;2022-11-20T03:31:10;3.40;99.90
21830;DHT22;11077;50.264;6.798;2022-11-20T03:33:39;3.50;99.90
21830;DHT22;11077;50.264;6.798;2022-11-20T03:36:08;3.50;99.90
21830;DHT22;11077;50.264;6.798;2022-11-20T03:38:36;3.50;99.90
21830;DHT22;11077;50.264;6.798;2022-11-20T03:41:06;3.60;99.90
21830;DHT22;11077;50.264;6.798;2022-11-20T03:43:34;3.60;99.90
21830;DHT22;11077;50.264;6.798;2022-11-20T03:46:01;3.60;99.90
21830;DHT22;11077;50.264;6.798;2022-11-20T03:48:30;3.60;99.90
21830;DHT22;11077;50.264;6.798;2022-11-20T03:51:09;3.50;99.90
21830;DHT22;11077;50.264;6.798;2022-11-20T03:53:36;3.60;99.90
21830;DHT22;11077;50.264;6.798;2022-11-20T03:56:05;3.60;99.90
21830;DHT22;11077;50.264;6.798;2022-11-20T03:58:35;3.60;99.90
21830;DHT22;11077;50.264;6.798;2022-11-20T04:01:06;3.60;99.90
21830;DHT22;11077;50.264;6.798;2022-11-20T04:03:36;3.60;99.90
21830;DHT22;11077;50.264;6.798;2022-11-20T04:06:05;3.70;99.90
21830;DHT22;11077;50.264;6.798;2022-11-20T04:08:33;3.70;99.90
21830;DHT22;11077;50.264;6.798;2022-11-20T04:11:11;3.70;99.90
21830;DHT22;11077;50.264;6.798;2022-11-20T04:13:39;3.70;99.90
21830;DHT22;11077;50.264;6.798;2022-11-20T04:16:07;3.70;99.90
21830;DHT22;11077;50.264;6.798;2022-11-20T04:18:36;3.70;99.90
21830;DHT22;11077;50.264;6.798;2022-11-20T04:21:05;3.70;99.90
21830;DHT22;11077;50.264;6.798;2022-11-20T04:23:32;3.70;99.90
21830;DHT22;11077;50.264;6.798;2022-11-20T04:26:03;3.80;99.90
21830;DHT22;11077;50.264;6.798;2022-11-20T04:28:31;3.70;99.90
21830;DHT22;11077;50.264;6.798;2022-11-20T04:31:03;3.80;99.90
21830;DHT22;11077;50.264;6.798;2022-11-20T04:33:30;3.80;99.90
21830;DHT22;11077;50.264;6.798;2022-11-20T04:36:02;3.70;99.90
21830;DHT22;11077;50.264;6.798;2022-11-20T04:38:30;3.70;99.90
21830;DHT22;11077;50.264;6.798;2022-11-20T04:40:58;3.80;99.90
21830;DHT22;11077;50.264;6.798;2022-11-20T04:43:25;3.80;99.90
21830;DHT22;11077;50.264;6.798;2022-11-20T04:45:54;3.80;99.90
21830;DHT22;11077;50.264;6.798;2022-11-20T04:48:21;3.80;99.90
21830;DHT22;11077;50.264;6.798;2022-11-20T04:50:49;3.90;99.90
21830;DHT22;11077;50.264;6.798;2022-11-20T04:53:18;3.90;99.90
21830;DHT22;11077;50.264;6.798;2022-11-20T04:55:46;3.90;99.90
21830;DHT22;11077;50.264;6.798;2022-11-20T04:58:13;3.80;99.90
21830;DHT22;11077;50.264;6.798;2022-11-20T05:00:41;3.90;99.90
21830;DHT22;11077;50.264;6.798;2022-11-20T05:03:08;3.90;99.90
21830;DHT22;11077;50.264;6.798;2022-11-20T05:05:35;3.90;99.90
21830;DHT22;11077;50.264;6.798;2022-11-20T05:08:03;3.80;99.90
21830;DHT22;11077;50.264;6.798;2022-11-20T05:10:32;3.90;99.90
21830;DHT22;11077;50.264;6.798;2022-11-20T05:12:59;3.80;99.90
21830;DHT22;11077;50.264;6.798;2022-11-20T05:15:26;3.80;99.90
21830;DHT22;11077;50.264;6.798;2022-11-20T05:17:54;3.80;99.90
21830;DHT22;11077;50.264;6.798;2022-11-20T05:20:21;3.80;99.90
21830;DHT22;11077;50.264;6.798;2022-11-20T05:22:48;3.80;99.90
21830;DHT22;11077;50.264;6.798;2022-11-20T05:25:16;3.80;99.90
21830;DHT22;11077;50.264;6.798;2022-11-20T05:27:44;3.80;99.90
21830;DHT22;11077;50.264;6.798;2022-11-20T05:30:13;3.70;99.90
21830;DHT22;11077;50.264;6.798;2022-11-20T05:32:40;3.80;99.90
21830;DHT22;11077;50.264;6.798;2022-11-20T05:35:07;3.80;99.90
21830;DHT22;11077;50.264;6.798;2022-11-20T05:37:35;3.70;99.90
21830;DHT22;11077;50.264;6.798;2022-11-20T05:40:03;3.80;99.90
21830;DHT22;11077;50.264;6.798;2022-11-20T05:42:30;3.70;99.90
21830;DHT22;11077;50.264;6.798;2022-11-20T05:45:00;3.70;99.90
21830;DHT22;11077;50.264;6.798;2022-11-20T05:47:32;3.70;99.90
21830;DHT22;11077;50.264;6.798;2022-11-20T05:50:00;3.70;99.90
21830;DHT22;11077;50.264;6.798;2022-11-20T05:52:28;3.60;99.90
21830;DHT22;11077;50.264;6.798;2022-11-20T05:54:56;3.50;99.90
21830;DHT22;11077;50.264;6.798;2022-11-20T05:57:23;3.40;99.90
21830;DHT22;11077;50.264;6.798;2022-11-20T05:59:50;3.40;99.90
21830;DHT22;11077;50.264;6.798;2022-11-20T06:02:19;3.30;99.90
21830;DHT22;11077;50.264;6.798;2022-11-20T06:04:46;3.30;99.90
21830;DHT22;11077;50.264;6.798;2022-11-20T06:07:14;3.30;99.90
21830;DHT22;11077;50.264;6.798;2022-11-20T06:09:41;3.20;99.90
21830;DHT22;11077;50.264;6.798;2022-11-20T06:12:08;3.10;99.90
21830;DHT22;11077;50.264;6.798;2022-11-20T06:14:36;3.10;99.90
21830;DHT22;11077;50.264;6.798;2022-11-20T06:17:03;3.00;99.90
21830;DHT22;11077;50.264;6.798;2022-11-20T06:19:32;2.90;99.90
21830;DHT22;11077;50.264;6.798;2022-11-20T06:21:59;2.90;99.90
21830;DHT22;11077;50.264;6.798;2022-11-20T06:24:26;2.80;99.90
21830;DHT22;11077;50.264;6.798;2022-11-20T06:26:54;2.70;99.90
21830;DHT22;11077;50.264;6.798;2022-11-20T06:29:21;2.70;99.90
21830;DHT22;11077;50.264;6.798;2022-11-20T06:31:48;2.60;99.90
21830;DHT22;11077;50.264;6.798;2022-11-20T06:34:16;2.60;99.90
21830;DHT22;11077;50.264;6.798;2022-11-20T06:36:44;2.50;99.90
21830;DHT22;11077;50.264;6.798;2022-11-20T06:39:12;2.40;99.90
21830;DHT22;11077;50.264;6.798;2022-11-20T06:41:39;2.40;99.90
21830;DHT22;11077;50.264;6.798;2022-11-20T06:44:06;2.30;99.90
21830;DHT22;11077;50.264;6.798;2022-11-20T06:46:34;2.30;99.90
21830;DHT22;11077;50.264;6.798;2022-11-20T06:49:01;2.20;99.90
21830;DHT22;11077;50.264;6.798;2022-11-20T06:51:28;2.10;99.90
21830;DHT22;11077;50.264;6.798;2022-11-20T06:53:57;2.10;99.90
21830;DHT22;11077;50.264;6.798;2022-11-20T06:56:26;2.00;99.90
21830;DHT22;11077;50.264;6.798;2022-11-20T06:58:54;2.00;99.90
21830;DHT22;11077;50.264;6.798;2022-11-20T07:01:21;2.00;99.90
21830;DHT22;11077;50.264;6.798;2022-11-20T07:03:49;2.00;99.90
21830;DHT22;11077;50.264;6.798;2022-11-20T07:06:16;1.90;99.90
21830;DHT22;11077;50.264;6.798;2022-11-20T07:08:44;1.80;99.90
21830;DHT22;11077;50.264;6.798;2022-11-20T07:11:14;1.80;99.90
21830;DHT22;11077;50.264;6.798;2022-11-20T07:13:41;1.80;99.90
21830;DHT22;11077;50.264;6.798;2022-11-20T07:16:09;1.70;99.90
21830;DHT22;11077;50.264;6.798;2022-11-20T07:18:36;1.70;99.90
21830;DHT22;11077;50.264;6.798;2022-11-20T07:21:06;1.70;99.90
21830;DHT22;11077;50.264;6.798;2022-11-20T07:23:33;1.80;99.90
21830;DHT22;11077;50.264;6.798;2022-11-20T07:26:03;1.80;99.90
21830;DHT22;11077;50.264;6.798;2022-11-20T07:28:32;1.80;99.90
21830;DHT22;11077;50.264;6.798;2022-11-20T07:31:00;1.90;99.90
21830;DHT22;11077;50.264;6.798;2022-11-20T07:33:27;1.90;99.90
21830;DHT22;11077;50.264;6.798;2022-11-20T07:35:55;1.90;99.90
21830;DHT22;11077;50.264;6.798;2022-11-20T07:38:22;2.00;99.90
21830;DHT22;11077;50.264;6.798;2022-11-20T07:40:53;2.00;99.90
21830;DHT22;11077;50.264;6.798;2022-11-20T07:43:21;2.10;99.90
21830;DHT22;11077;50.264;6.798;2022-11-20T07:45:50;2.10;99.90
21830;DHT22;11077;50.264;6.798;2022-11-20T07:48:17;2.10;99.90
21830;DHT22;11077;50.264;6.798;2022-11-20T07:50:45;2.10;99.90
21830;DHT22;11077;50.264;6.798;2022-11-20T07:53:12;2.20;99.90
21830;DHT22;11077;50.264;6.798;2022-11-20T07:55:46;2.20;99.90
21830;DHT22;11077;50.264;6.798;2022-11-20T07:58:13;2.20;99.90
21830;DHT22;11077;50.264;6.798;2022-11-20T08:00:41;2.20;99.90
21830;DHT22;11077;50.264;6.798;2022-11-20T08:03:09;2.20;99.90
21830;DHT22;11077;50.264;6.798;2022-11-20T08:05:36;2.20;99.90
21830;DHT22;11077;50.264;6.798;2022-11-20T08:08:04;2.20;99.90
21830;DHT22;11077;50.264;6.798;2022-11-20T08:10:32;2.30;99.90
21830;DHT22;11077;50.264;6.798;2022-11-20T08:13:00;2.30;99.90
21830;DHT22;11077;50.264;6.798;2022-11-20T08:15:48;2.40;99.90
21830;DHT22;11077;50.264;6.798;2022-11-20T08:18:18;2.40;99.90
21830;DHT22;11077;50.264;6.798;2022-11-20T08:20:45;2.40;99.90
21830;DHT22;11077;50.264;6.798;2022-11-20T08:23:13;2.40;99.90
21830;DHT22;11077;50.264;6.798;2022-11-20T08:25:40;2.40;99.90
21830;DHT22;11077;50.264;6.798;2022-11-20T08:28:09;2.40;99.90
21830;DHT22;11077;50.264;6.798;2022-11-20T08:30:37;2.50;99.90
21830;DHT22;11077;50.264;6.798;2022-11-20T08:33:05;2.50;99.90
21830;DHT22;11077;50.264;6.798;2022-11-20T08:35:36;2.50;99.90
21830;DHT22;11077;50.264;6.798;2022-11-20T08:38:04;2.50;99.90
21830;DHT22;11077;50.264;6.798;2022-11-20T08:40:31;2.60;99.90
21830;DHT22;11077;50.264;6.798;2022-11-20T08:42:59;2.70;99.90
21830;DHT22;11077;50.264;6.798;2022-11-20T08:45:26;2.70;99.90
21830;DHT22;11077;50.264;6.798;2022-11-20T08:47:53;2.80;99.90
21830;DHT22;11077;50.264;6.798;2022-11-20T08:50:26;2.80;99.90
21830;DHT22;11077;50.264;6.798;2022-11-20T08:52:55;2.90;99.90
21830;DHT22;11077;50.264;6.798;2022-11-20T08:55:22;3.00;99.90
21830;DHT22;11077;50.264;6.798;2022-11-20T08:57:49;3.00;99.90
21830;DHT22;11077;50.264;6.798;2022-11-20T09:00:17;3.10;99.90
21830;DHT22;11077;50.264;6.798;2022-11-20T09:02:44;3.10;99.90
21830;DHT22;11077;50.264;6.798;2022-11-20T09:05:11;3.10;99.90
21830;DHT22;11077;50.264;6.798;2022-11-20T09:07:38;3.10;99.90
21830;DHT22;11077;50.264;6.798;2022-11-20T09:10:08;3.20;99.90
21830;DHT22;11077;50.264;6.798;2022-11-20T09:12:36;3.20;99.90
21830;DHT22;11077;50.264;6.798;2022-11-20T09:15:03;3.30;99.90
21830;DHT22;11077;50.264;6.798;2022-11-20T09:17:31;3.30;99.90
21830;DHT22;11077;50.264;6.798;2022-11-20T09:19:59;3.40;99.90
21830;DHT22;11077;50.264;6.798;2022-11-20T09:22:27;3.40;99.90
21830;DHT22;11077;50.264;6.798;2022-11-20T09:24:54;3.50;99.90
21830;DHT22;11077;50.264;6.798;2022-11-20T09:27:23;3.60;99.90
21830;DHT22;11077;50.264;6.798;2022-11-20T09:29:50;3.60;99.90
21830;DHT22;11077;50.264;6.798;2022-11-20T09:32:17;3.60;99.90
21830;DHT22;11077;50.264;6.798;2022-11-20T09:34:45;3.80;99.90
21830;DHT22;11077;50.264;6.798;2022-11-20T09:37:12;3.90;99.90
21830;DHT22;11077;50.264;6.798;2022-11-20T09:39:40;3.80;99.90
21830;DHT22;11077;50.264;6.798;2022-11-20T09:42:21;3.90;99.90
21830;DHT22;11077;50.264;6.798;2022-11-20T09:47:50;3.90;99.90
21830;DHT22;11077;50.264;6.798;2022-11-20T09:50:27;3.90;99.90
21830;DHT22;11077;50.264;6.798;2022-11-20T09:53:09;4.00;99.90
21830;DHT22;11077;50.264;6.798;2022-11-20T09:55:38;4.00;99.90
21830;DHT22;11077;50.264;6.798;2022-11-20T09:58:07;4.00;99.90
21830;DHT22;11077;50.264;6.798;2022-11-20T10:00:41;4.10;99.90
21830;DHT22;11077;50.264;6.798;2022-11-20T10:03:14;4.20;99.90
21830;DHT22;11077;50.264;6.798;2022-11-20T10:05:46;4.20;99.90
21830;DHT22;11077;50.264;6.798;2022-11-20T10:08:19;4.20;99.90
21830;DHT22;11077;50.264;6.798;2022-11-20T10:10:50;4.30;99.90
21830;DHT22;11077;50.264;6.798;2022-11-20T10:13:38;4.30;99.90
21830;DHT22;11077;50.264;6.798;2022-11-20T10:16:18;4.30;99.90
21830;DHT22;11077;50.264;6.798;2022-11-20T10:18:58;4.40;99.90
21830;DHT22;11077;50.264;6.798;2022-11-20T10:21:35;4.50;99.90
21830;DHT22;11077;50.264;6.798;2022-11-20T10:24:41;4.50;99.90
21830;DHT22;11077;50.264;6.798;2022-11-20T10:27:22;4.60;99.90
21830;DHT22;11077;50.264;6.798;2022-11-20T10:30:00;4.70;99.90
21830;DHT22;11077;50.264;6.798;2022-11-20T10:32:34;4.60;99.90
21830;DHT22;11077;50.264;6.798;2022-11-20T10:35:06;4.70;99.90
21830;DHT22;11077;50.264;6.798;2022-11-20T10:37:38;4.70;99.90
21830;DHT22;11077;50.264;6.798;2022-11-20T10:40:21;4.80;99.90
21830;DHT22;11077;50.264;6.798;2022-11-20T10:42:52;4.80;99.90
21830;DHT22;11077;50.264;6.798;2022-11-20T10:45:40;4.90;99.90
21830;DHT22;11077;50.264;6.798;2022-11-20T10:48:15;4.90;99.90
21830;DHT22;11077;50.264;6.798;2022-11-20T10:50:54;4.90;99.90
21830;DHT22;11077;50.264;6.798;2022-11-20T10:53:37;4.90;99.90
21830;DHT22;11077;50.264;6.798;2022-11-20T10:56:15;4.90;99.90
21830;DHT22;11077;50.264;6.798;2022-11-20T10:58:48;5.00;99.90
21830;DHT22;11077;50.264;6.798;2022-11-20T11:01:21;5.00;99.90
21830;DHT22;11077;50.264;6.798;2022-11-20T11:03:50;5.00;99.90
21830;DHT22;11077;50.264;6.798;2022-11-20T11:06:24;5.00;99.90
21830;DHT22;11077;50.264;6.798;2022-11-20T11:08:53;5.10;99.90
21830;DHT22;11077;50.264;6.798;2022-11-20T11:11:25;5.20;99.90
21830;DHT22;11077;50.264;6.798;2022-11-20T11:14:04;5.20;99.90
21830;DHT22;11077;50.264;6.798;2022-11-20T11:16:32;5.30;99.90
21830;DHT22;11077;50.264;6.798;2022-11-20T11:19:12;5.30;99.90
21830;DHT22;11077;50.264;6.798;2022-11-20T11:21:46;5.40;99.90
21830;DHT22;11077;50.264;6.798;2022-11-20T11:24:20;5.40;99.90
21830;DHT22;11077;50.264;6.798;2022-11-20T11:26:55;5.40;99.90
21830;DHT22;11077;50.264;6.798;2022-11-20T11:29:23;5.50;99.90
21830;DHT22;11077;50.264;6.798;2022-11-20T11:32:04;5.50;99.90
21830;DHT22;11077;50.264;6.798;2022-11-20T11:34:33;5.50;99.90
21830;DHT22;11077;50.264;6.798;2022-11-20T11:37:02;5.60;99.90
21830;DHT22;11077;50.264;6.798;2022-11-20T11:39:31;5.60;99.90
21830;DHT22;11077;50.264;6.798;2022-11-20T11:42:00;5.60;99.90
21830;DHT22;11077;50.264;6.798;2022-11-20T11:44:30;5.60;99.90
21830;DHT22;11077;50.264;6.798;2022-11-20T11:47:23;5.70;99.90
21830;DHT22;11077;50.264;6.798;2022-11-20T11:52:46;5.80;99.90
21830;DHT22;11077;50.264;6.798;2022-11-20T11:55:21;5.80;99.90
21830;DHT22;11077;50.264;6.798;2022-11-20T11:57:54;5.80;99.90
21830;DHT22;11077;50.264;6.798;2022-11-20T12:00:23;5.90;99.90
21830;DHT22;11077;50.264;6.798;2022-11-20T12:03:03;5.90;99.90
21830;DHT22;11077;50.264;6.798;2022-11-20T12:05:38;6.00;99.90
21830;DHT22;11077;50.264;6.798;2022-11-20T12:08:14;6.00;99.90
21830;DHT22;11077;50.264;6.798;2022-11-20T12:10:46;6.00;99.90
21830;DHT22;11077;50.264;6.798;2022-11-20T12:13:24;6.00;99.90
21830;DHT22;11077;50.264;6.798;2022-11-20T12:15:53;6.10;99.90
21830;DHT22;11077;50.264;6.798;2022-11-20T12:18:21;6.10;99.90
21830;DHT22;11077;50.264;6.798;2022-11-20T12:21:01;6.00;99.90
21830;DHT22;11077;50.264;6.798;2022-11-20T12:23:39;6.10;99.90
21830;DHT22;11077;50.264;6.798;2022-11-20T12:26:16;6.00;99.90
21830;DHT22;11077;50.264;6.798;2022-11-20T12:28:56;6.10;99.90
21830;DHT22;11077;50.264;6.798;2022-11-20T12:31:40;6.00;99.90
21830;DHT22;11077;50.264;6.798;2022-11-20T12:37:18;6.10;99.90
21830;DHT22;11077;50.264;6.798;2022-11-20T12:39:49;6.10;99.90
21830;DHT22;11077;50.264;6.798;2022-11-20T12:42:33;6.10;99.90
21830;DHT22;11077;50.264;6.798;2022-11-20T12:48:22;6.10;99.90
21830;DHT22;11077;50.264;6.798;2022-11-20T12:51:17;6.00;99.90
21830;DHT22;11077;50.264;6.798;2022-11-20T12:53:58;6.10;99.90
21830;DHT22;11077;50.264;6.798;2022-11-20T12:56:36;6.10;99.90
21830;DHT22;11077;50.264;6.798;2022-11-20T12:59:19;6.00;99.90
21830;DHT22;11077;50.264;6.798;2022-11-20T13:01:51;6.00;99.90
21830;DHT22;11077;50.264;6.798;2022-11-20T13:07:15;6.00;99.90
21830;DHT22;11077;50.264;6.798;2022-11-20T13:09:46;5.90;99.90
21830;DHT22;11077;50.264;6.798;2022-11-20T13:12:19;6.00;99.90
21830;DHT22;11077;50.264;6.798;2022-11-20T13:14:53;5.90;99.90
21830;DHT22;11077;50.264;6.798;2022-11-20T13:17:30;6.00;99.90
21830;DHT22;11077;50.264;6.798;2022-11-20T13:20:00;5.90;99.90
21830;DHT22;11077;50.264;6.798;2022-11-20T13:22:43;5.90;99.90
21830;DHT22;11077;50.264;6.798;2022-11-20T13:25:22;5.90;99.90
21830;DHT22;11077;50.264;6.798;2022-11-20T13:27:50;5.90;99.90
21830;DHT22;11077;50.264;6.798;2022-11-20T13:30:19;5.90;99.90
21830;DHT22;11077;50.264;6.798;2022-11-20T13:32:51;5.90;99.90
21830;DHT22;11077;50.264;6.798;2022-11-20T13:35:30;5.90;99.90
21830;DHT22;11077;50.264;6.798;2022-11-20T13:38:06;5.90;99.90
21830;DHT22;11077;50.264;6.798;2022-11-20T13:40:37;5.90;99.90
21830;DHT22;11077;50.264;6.798;2022-11-20T13:43:18;5.90;99.90
21830;DHT22;11077;50.264;6.798;2022-11-20T13:45:56;5.90;99.90
21830;DHT22;11077;50.264;6.798;2022-11-20T13:48:26;5.90;99.90
21830;DHT22;11077;50.264;6.798;2022-11-20T13:51:07;5.90;99.90
21830;DHT22;11077;50.264;6.798;2022-11-20T13:56:40;5.80;99.90
21830;DHT22;11077;50.264;6.798;2022-11-20T13:59:21;5.80;99.90
21830;DHT22;11077;50.264;6.798;2022-11-20T14:01:54;5.80;99.90
21830;DHT22;11077;50.264;6.798;2022-11-20T14:04:27;5.70;99.90
21830;DHT22;11077;50.264;6.798;2022-11-20T14:06:56;5.70;99.90
21830;DHT22;11077;50.264;6.798;2022-11-20T14:09:28;5.70;99.90
21830;DHT22;11077;50.264;6.798;2022-11-20T14:11:58;5.70;99.90
21830;DHT22;11077;50.264;6.798;2022-11-20T14:14:26;5.60;99.90
21830;DHT22;11077;50.264;6.798;2022-11-20T14:17:05;5.60;99.90
21830;DHT22;11077;50.264;6.798;2022-11-20T14:19:33;5.60;99.90
21830;DHT22;11077;50.264;6.798;2022-11-20T14:22:17;5.60;99.90
21830;DHT22;11077;50.264;6.798;2022-11-20T14:24:45;5.50;99.90
21830;DHT22;11077;50.264;6.798;2022-11-20T14:27:16;5.40;99.90
21830;DHT22;11077;50.264;6.798;2022-11-20T14:29:46;5.40;99.90
21830;DHT22;11077;50.264;6.798;2022-11-20T14:32:16;5.30;99.90
21830;DHT22;11077;50.264;6.798;2022-11-20T14:34:45;5.30;99.90
21830;DHT22;11077;50.264;6.798;2022-11-20T14:37:25;5.30;99.90
21830;DHT22;11077;50.264;6.798;2022-11-20T14:39:55;5.30;99.90
21830;DHT22;11077;50.264;6.798;2022-11-20T14:42:28;5.30;99.90
21830;DHT22;11077;50.264;6.798;2022-11-20T14:44:57;5.30;99.90
21830;DHT22;11077;50.264;6.798;2022-11-20T14:47:26;5.20;99.90
21830;DHT22;11077;50.264;6.798;2022-11-20T14:49:55;5.20;99.90
21830;DHT22;11077;50.264;6.798;2022-11-20T14:52:24;5.20;99.90
21830;DHT22;11077;50.264;6.798;2022-11-20T14:54:53;5.20;99.90
21830;DHT22;11077;50.264;6.798;2022-11-20T14:57:25;5.20;99.90
21830;DHT22;11077;50.264;6.798;2022-11-20T15:00:05;5.10;99.90
21830;DHT22;11077;50.264;6.798;2022-11-20T15:02:33;5.10;99.90
21830;DHT22;11077;50.264;6.798;2022-11-20T15:05:01;5.10;99.90
21830;DHT22;11077;50.264;6.798;2022-11-20T15:07:31;5.20;99.90
21830;DHT22;11077;50.264;6.798;2022-11-20T15:10:01;5.20;99.90
21830;DHT22;11077;50.264;6.798;2022-11-20T15:12:30;5.10;99.90
21830;DHT22;11077;50.264;6.798;2022-11-20T15:14:58;5.10;99.90
21830;DHT22;11077;50.264;6.798;2022-11-20T15:17:25;5.10;99.90
21830;DHT22;11077;50.264;6.798;2022-11-20T15:19:53;5.00;99.90
21830;DHT22;11077;50.264;6.798;2022-11-20T15:22:21;5.00;99.90
21830;DHT22;11077;50.264;6.798;2022-11-20T15:24:48;5.00;99.90
21830;DHT22;11077;50.264;6.798;2022-11-20T15:27:16;5.00;99.90
21830;DHT22;11077;50.264;6.798;2022-11-20T15:29:44;4.90;99.90
21830;DHT22;11077;50.264;6.798;2022-11-20T15:32:12;4.90;99.90
21830;DHT22;11077;50.264;6.798;2022-11-20T15:34:39;4.90;99.90
21830;DHT22;11077;50.264;6.798;2022-11-20T15:37:07;4.90;99.90
21830;DHT22;11077;50.264;6.798;2022-11-20T15:39:34;4.80;99.90
21830;DHT22;11077;50.264;6.798;2022-11-20T15:42:01;4.80;99.90
21830;DHT22;11077;50.264;6.798;2022-11-20T15:44:28;4.70;99.90
21830;DHT22;11077;50.264;6.798;2022-11-20T15:46:57;4.70;99.90
21830;DHT22;11077;50.264;6.798;2022-11-20T15:49:24;4.70;99.90
21830;DHT22;11077;50.264;6.798;2022-11-20T15:51:52;4.60;99.90
21830;DHT22;11077;50.264;6.798;2022-11-20T15:54:21;4.60;99.90
21830;DHT22;11077;50.264;6.798;2022-11-20T15:56:49;4.60;99.90
21830;DHT22;11077;50.264;6.798;2022-11-20T15:59:18;4.60;99.90
21830;DHT22;11077;50.264;6.798;2022-11-20T16:01:45;4.50;99.90
21830;DHT22;11077;50.264;6.798;2022-11-20T16:04:15;4.60;99.90
21830;DHT22;11077;50.264;6.798;2022-11-20T16:06:44;4.60;99.90
21830;DHT22;11077;50.264;6.798;2022-11-20T16:09:11;4.50;99.90
21830;DHT22;11077;50.264;6.798;2022-11-20T16:11:39;4.50;99.90
21830;DHT22;11077;50.264;6.798;2022-11-20T16:14:08;4.60;99.90
21830;DHT22;11077;50.264;6.798;2022-11-20T16:16:53;4.50;99.90
21830;DHT22;11077;50.264;6.798;2022-11-20T16:19:22;4.50;99.90
21830;DHT22;11077;50.264;6.798;2022-11-20T16:21:50;4.50;99.90
21830;DHT22;11077;50.264;6.798;2022-11-20T16:24:17;4.50;99.90
21830;DHT22;11077;50.264;6.798;2022-11-20T16:26:45;4.50;99.90